createdAt,value
2022-10-06T00:00:22.215Z,2.33
2022-10-06T00:01:24.018Z,2.47
2022-10-06T00:02:25.827Z,2.60
2022-10-06T00:03:28.037Z,2.37
2022-10-06T00:04:29.866Z,2.13
2022-10-06T00:05:31.683Z,2.37
2022-10-06T00:06:33.971Z,2.10
2022-10-06T00:07:36.567Z,2.63
2022-10-06T00:08:40.169Z,2.40
2022-10-06T00:09:42.526Z,2.27
2022-10-06T00:10:44.516Z,2.30
2022-10-06T00:11:46.090Z,2.03
2022-10-06T00:12:50.534Z,2.57
2022-10-06T00:13:52.208Z,2.37
2022-10-06T00:14:53.857Z,2.53
2022-10-06T00:15:55.652Z,2.10
2022-10-06T00:16:57.332Z,2.60
2022-10-06T00:18:00.762Z,2.40
2022-10-06T00:19:02.370Z,2.17
2022-10-06T00:20:04.722Z,2.40
2022-10-06T00:21:06.478Z,2.40
2022-10-06T00:22:08.070Z,2.00
2022-10-06T00:23:10.114Z,1.97
2022-10-06T00:24:11.963Z,2.10
2022-10-06T00:25:16.401Z,1.87
2022-10-06T00:26:17.996Z,2.43
2022-10-06T00:27:20.233Z,2.10
2022-10-06T00:28:22.010Z,2.10
2022-10-06T00:29:23.702Z,1.77
2022-10-06T00:30:27.501Z,2.20
2022-10-06T00:31:29.611Z,2.40
2022-10-06T00:32:31.440Z,2.10
2022-10-06T00:33:33.032Z,2.33
2022-10-06T00:34:36.472Z,2.23
2022-10-06T00:35:38.127Z,2.73
2022-10-06T00:36:40.204Z,1.97
2022-10-06T00:37:41.793Z,2.00
2022-10-06T00:38:43.408Z,2.30
2022-10-06T00:39:44.999Z,2.53
2022-10-06T00:40:49.546Z,2.07
2022-10-06T00:41:51.120Z,2.50
2022-10-06T00:42:54.851Z,2.03
2022-10-06T00:43:58.803Z,2.40
2022-10-06T00:45:04.074Z,2.07
2022-10-06T00:46:08.715Z,2.30
2022-10-06T00:47:10.504Z,2.50
2022-10-06T00:48:21.103Z,2.13
2022-10-06T00:49:28.208Z,2.33
2022-10-06T00:50:30.912Z,2.90
2022-10-06T00:51:34.006Z,2.53
2022-10-06T00:52:35.909Z,2.10
2022-10-06T00:53:37.577Z,2.20
2022-10-06T00:54:39.994Z,2.00
2022-10-06T00:55:41.621Z,1.90
2022-10-06T00:56:44.030Z,2.13
2022-10-06T00:57:46.762Z,1.87
2022-10-06T00:58:50.261Z,1.90
2022-10-06T00:59:52.541Z,2.10
2022-10-06T01:00:55.154Z,2.07
2022-10-06T01:02:09.250Z,2.10
2022-10-06T01:03:35.139Z,2.27
2022-10-06T01:04:41.132Z,2.00
2022-10-06T01:05:46.731Z,2.17
2022-10-06T01:06:52.519Z,2.50
2022-10-06T01:07:54.493Z,1.83
2022-10-06T01:08:56.188Z,2.07
2022-10-06T01:09:58.157Z,1.80
2022-10-06T01:11:00.229Z,1.40
2022-10-06T01:12:05.220Z,2.17
2022-10-06T01:13:07.546Z,1.70
2022-10-06T01:14:10.222Z,1.00
2022-10-06T01:15:12.234Z,1.00
2022-10-06T01:16:27.031Z,0.80
2022-10-06T01:17:37.525Z,0.90
2022-10-06T01:18:40.386Z,0.93
2022-10-06T01:19:54.439Z,0.90
2022-10-06T01:21:11.873Z,1.10
2022-10-06T01:22:16.142Z,1.07
2022-10-06T01:23:18.375Z,1.20
2022-10-06T01:24:20.281Z,1.00
2022-10-06T01:25:22.898Z,1.00
2022-10-06T01:26:26.392Z,1.20
2022-10-06T01:27:30.660Z,1.10
2022-10-06T01:28:33.148Z,0.90
2022-10-06T01:29:36.036Z,0.77
2022-10-06T01:30:53.164Z,1.00
2022-10-06T01:31:55.306Z,1.10
2022-10-06T01:32:57.198Z,1.27
2022-10-06T01:33:58.879Z,0.87
2022-10-06T01:35:00.556Z,0.90
2022-10-06T01:36:02.143Z,1.10
2022-10-06T01:37:03.803Z,0.90
2022-10-06T01:38:05.460Z,1.27
2022-10-06T01:39:07.256Z,1.10
2022-10-06T01:40:09.563Z,1.00
2022-10-06T01:41:11.219Z,1.13
2022-10-06T01:42:12.904Z,1.40
2022-10-06T01:43:14.503Z,1.00
2022-10-06T01:44:16.112Z,1.10
2022-10-06T01:45:18.049Z,1.10
2022-10-06T01:46:19.725Z,1.00
2022-10-06T01:47:21.358Z,1.20
2022-10-06T01:48:23.729Z,0.90
2022-10-06T01:49:25.335Z,1.20
2022-10-06T01:50:27.127Z,1.13
2022-10-06T01:51:28.731Z,1.23
2022-10-06T01:52:30.324Z,1.10
2022-10-06T01:53:32.291Z,1.07
2022-10-06T01:54:33.865Z,0.93
2022-10-06T01:55:36.139Z,1.23
2022-10-06T01:56:37.718Z,1.10
2022-10-06T01:57:43.005Z,0.80
2022-10-06T01:58:44.556Z,0.70
2022-10-06T01:59:46.210Z,0.70
2022-10-06T02:00:47.951Z,0.90
2022-10-06T02:01:49.669Z,0.70
2022-10-06T02:02:51.307Z,0.90
2022-10-06T02:03:52.886Z,0.70
2022-10-06T02:04:54.476Z,0.80
2022-10-06T02:05:57.177Z,0.60
2022-10-06T02:06:58.975Z,0.83
2022-10-06T02:08:01.991Z,0.87
2022-10-06T02:09:03.916Z,0.70
2022-10-06T02:10:06.810Z,0.70
2022-10-06T02:11:09.895Z,1.30
2022-10-06T02:12:11.502Z,0.90
2022-10-06T02:13:13.184Z,0.68
2022-10-06T02:14:14.929Z,0.57
2022-10-06T02:15:16.650Z,0.60
2022-10-06T02:16:18.532Z,0.63
2022-10-06T02:17:20.242Z,1.10
2022-10-06T02:18:21.857Z,0.80
2022-10-06T02:19:23.445Z,0.80
2022-10-06T02:20:25.826Z,0.65
2022-10-06T02:21:27.477Z,0.50
2022-10-06T02:22:29.032Z,0.60
2022-10-06T02:23:30.976Z,0.60
2022-10-06T02:24:32.586Z,0.80
2022-10-06T02:25:34.179Z,0.80
2022-10-06T02:26:35.957Z,0.80
2022-10-06T02:27:38.525Z,0.82
2022-10-06T02:28:40.180Z,0.50
2022-10-06T02:29:41.765Z,0.60
2022-10-06T02:30:44.136Z,0.70
2022-10-06T02:31:46.040Z,0.75
2022-10-06T02:32:47.687Z,0.90
2022-10-06T02:33:49.336Z,0.60
2022-10-06T02:34:50.928Z,0.88
2022-10-06T02:35:58.819Z,0.70
2022-10-06T02:37:00.443Z,0.60
2022-10-06T02:38:02.023Z,0.73
2022-10-06T02:39:04.232Z,1.20
2022-10-06T02:40:06.462Z,0.80
2022-10-06T02:41:08.743Z,0.60
2022-10-06T02:42:11.180Z,0.60
2022-10-06T02:43:12.782Z,0.70
2022-10-06T02:44:14.857Z,0.70
2022-10-06T02:45:16.518Z,1.20
2022-10-06T02:46:18.553Z,0.70
2022-10-06T02:47:22.244Z,0.60
2022-10-06T02:48:25.176Z,0.93
2022-10-06T02:49:27.015Z,0.88
2022-10-06T02:50:28.623Z,1.00
2022-10-06T02:51:31.405Z,0.73
2022-10-06T02:52:37.506Z,1.00
2022-10-06T02:53:39.900Z,0.98
2022-10-06T02:54:42.215Z,0.88
2022-10-06T02:55:43.802Z,0.60
2022-10-06T02:56:46.027Z,0.73
2022-10-06T02:57:47.628Z,0.70
2022-10-06T02:58:50.586Z,0.80
2022-10-06T02:59:52.185Z,0.70
2022-10-06T03:00:53.746Z,0.80
2022-10-06T03:01:55.523Z,0.73
2022-10-06T03:02:59.357Z,0.77
2022-10-06T03:04:00.976Z,0.90
2022-10-06T03:05:02.733Z,0.60
2022-10-06T03:06:22.337Z,0.80
2022-10-06T03:07:24.087Z,0.70
2022-10-06T03:08:25.983Z,0.90
2022-10-06T03:09:27.774Z,0.93
2022-10-06T03:10:29.342Z,0.82
2022-10-06T03:11:33.676Z,0.80
2022-10-06T03:12:35.303Z,0.70
2022-10-06T03:13:36.903Z,0.75
2022-10-06T03:14:38.638Z,0.60
2022-10-06T03:15:40.239Z,0.73
2022-10-06T03:16:43.441Z,0.80
2022-10-06T03:17:49.920Z,0.73
2022-10-06T03:18:54.046Z,1.00
2022-10-06T03:19:58.822Z,0.70
2022-10-06T03:21:01.433Z,0.87
2022-10-06T03:22:04.175Z,0.67
2022-10-06T03:23:07.411Z,0.80
2022-10-06T03:24:12.162Z,0.70
2022-10-06T03:25:13.865Z,0.80
2022-10-06T03:26:17.709Z,0.88
2022-10-06T03:27:19.284Z,0.70
2022-10-06T03:28:20.928Z,0.90
2022-10-06T03:29:22.752Z,1.00
2022-10-06T03:30:24.310Z,1.00
2022-10-06T03:31:26.629Z,0.83
2022-10-06T03:32:28.347Z,0.80
2022-10-06T03:33:30.526Z,1.03
2022-10-06T03:34:32.161Z,0.70
2022-10-06T03:35:33.812Z,0.80
2022-10-06T03:36:36.189Z,0.90
2022-10-06T03:37:37.809Z,0.70
2022-10-06T03:38:39.736Z,0.90
2022-10-06T03:39:41.795Z,0.90
2022-10-06T03:40:43.597Z,0.83
2022-10-06T03:41:45.190Z,0.80
2022-10-06T03:42:46.902Z,0.88
2022-10-06T03:43:50.098Z,0.80
2022-10-06T03:44:51.683Z,0.82
2022-10-06T03:46:03.088Z,1.17
2022-10-06T03:47:04.720Z,0.70
2022-10-06T03:48:07.077Z,0.90
2022-10-06T03:49:08.740Z,1.00
2022-10-06T03:50:10.379Z,1.15
2022-10-06T03:51:14.855Z,0.77
2022-10-06T03:52:16.603Z,0.97
2022-10-06T03:53:18.332Z,0.90
2022-10-06T03:54:20.113Z,1.02
2022-10-06T03:55:22.010Z,0.83
2022-10-06T03:56:26.778Z,1.15
2022-10-06T03:57:28.363Z,1.17
2022-10-06T03:58:31.129Z,1.08
2022-10-06T03:59:34.290Z,1.00
2022-10-06T04:00:36.035Z,1.20
2022-10-06T04:01:40.501Z,1.45
2022-10-06T04:02:42.288Z,1.10
2022-10-06T04:03:44.565Z,0.80
2022-10-06T04:04:46.190Z,1.00
2022-10-06T04:05:58.874Z,1.20
2022-10-06T04:07:00.530Z,1.10
2022-10-06T04:08:02.238Z,1.10
2022-10-06T04:09:05.735Z,1.30
2022-10-06T04:10:08.325Z,1.65
2022-10-06T04:11:13.197Z,0.90
2022-10-06T04:12:14.848Z,0.87
2022-10-06T04:13:18.116Z,2.20
2022-10-06T04:14:19.747Z,1.63
2022-10-06T04:15:21.364Z,1.35
2022-10-06T04:16:25.958Z,1.20
2022-10-06T04:17:27.850Z,1.25
2022-10-06T04:18:29.709Z,1.35
2022-10-06T04:19:31.462Z,1.27
2022-10-06T04:20:33.150Z,1.20
2022-10-06T04:21:39.105Z,1.20
2022-10-06T04:22:40.867Z,1.30
2022-10-06T04:23:42.746Z,1.55
2022-10-06T04:24:44.339Z,1.20
2022-10-06T04:25:45.921Z,1.50
2022-10-06T04:26:50.759Z,1.45
2022-10-06T04:27:53.328Z,1.30
2022-10-06T04:28:54.917Z,2.03
2022-10-06T04:29:56.491Z,1.10
2022-10-06T04:31:00.061Z,1.55
2022-10-06T04:32:17.366Z,2.28
2022-10-06T04:33:19.819Z,1.70
2022-10-06T04:34:21.406Z,1.77
2022-10-06T04:35:23.344Z,2.13
2022-10-06T04:36:31.276Z,1.75
2022-10-06T04:37:32.900Z,1.38
2022-10-06T04:38:35.889Z,1.80
2022-10-06T04:39:37.743Z,1.25
2022-10-06T04:40:39.316Z,1.42
2022-10-06T04:41:42.169Z,1.70
2022-10-06T04:42:45.295Z,1.35
2022-10-06T04:43:48.178Z,1.42
2022-10-06T04:44:49.788Z,1.40
2022-10-06T04:45:58.868Z,1.40
2022-10-06T04:47:01.230Z,1.70
2022-10-06T04:48:02.886Z,1.50
2022-10-06T04:49:04.524Z,1.58
2022-10-06T04:50:06.470Z,1.80
2022-10-06T04:51:14.704Z,2.10
2022-10-06T04:52:16.576Z,1.98
2022-10-06T04:53:18.168Z,2.00
2022-10-06T04:54:19.836Z,2.33
2022-10-06T04:55:21.422Z,1.50
2022-10-06T04:56:25.551Z,1.30
2022-10-06T04:57:27.907Z,1.58
2022-10-06T04:58:37.883Z,1.30
2022-10-06T05:00:00.473Z,1.48
2022-10-06T05:01:20.091Z,1.80
2022-10-06T05:02:22.287Z,1.75
2022-10-06T05:03:23.953Z,2.50
2022-10-06T05:04:25.544Z,1.92
2022-10-06T05:05:27.163Z,1.45
2022-10-06T05:06:31.245Z,1.77
2022-10-06T05:07:32.934Z,2.05
2022-10-06T05:08:35.278Z,1.90
2022-10-06T05:09:37.101Z,1.50
2022-10-06T05:10:38.711Z,1.58
2022-10-06T05:11:40.298Z,1.73
2022-10-06T05:12:41.916Z,1.80
2022-10-06T05:13:43.771Z,2.05
2022-10-06T05:14:46.945Z,1.50
2022-10-06T05:15:59.381Z,2.28
2022-10-06T05:17:01.106Z,2.22
2022-10-06T05:18:02.763Z,1.80
2022-10-06T05:19:04.366Z,1.88
2022-10-06T05:20:06.570Z,2.30
2022-10-06T05:21:12.008Z,1.75
2022-10-06T05:22:13.611Z,2.28
2022-10-06T05:23:15.203Z,1.73
2022-10-06T05:24:17.373Z,1.60
2022-10-06T05:25:18.980Z,2.05
2022-10-06T05:26:23.436Z,2.10
2022-10-06T05:27:25.120Z,2.10
2022-10-06T05:28:28.930Z,1.85
2022-10-06T05:29:30.901Z,1.83
2022-10-06T05:30:32.604Z,1.70
2022-10-06T05:31:38.906Z,2.10
2022-10-06T05:32:40.665Z,2.10
2022-10-06T05:33:42.622Z,1.48
2022-10-06T05:34:44.205Z,2.92
2022-10-06T05:35:57.444Z,1.75
2022-10-06T05:36:59.025Z,2.78
2022-10-06T05:38:00.606Z,2.05
2022-10-06T05:39:03.093Z,2.08
2022-10-06T05:40:05.112Z,2.13
2022-10-06T05:41:08.392Z,1.95
2022-10-06T05:42:10.023Z,1.90
2022-10-06T05:43:11.646Z,1.20
2022-10-06T05:44:13.443Z,2.55
2022-10-06T05:45:15.183Z,2.70
2022-10-06T05:46:25.135Z,2.17
2022-10-06T05:47:26.840Z,2.13
2022-10-06T05:48:29.823Z,1.92
2022-10-06T05:49:31.687Z,2.20
2022-10-06T05:50:33.283Z,3.00
2022-10-06T05:51:36.026Z,2.55
2022-10-06T05:52:38.474Z,2.10
2022-10-06T05:53:40.141Z,2.72
2022-10-06T05:54:41.908Z,1.77
2022-10-06T05:55:43.540Z,1.88
2022-10-06T05:56:45.157Z,1.90
2022-10-06T05:57:46.834Z,2.00
2022-10-06T05:58:50.846Z,1.90
2022-10-06T05:59:52.449Z,2.55
2022-10-06T06:00:54.045Z,2.03
2022-10-06T06:01:55.845Z,1.55
2022-10-06T06:02:57.564Z,2.35
2022-10-06T06:04:02.641Z,2.05
2022-10-06T06:05:04.758Z,2.40
2022-10-06T06:06:25.250Z,2.17
2022-10-06T06:07:26.861Z,2.05
2022-10-06T06:08:28.998Z,3.53
2022-10-06T06:09:30.752Z,4.43
2022-10-06T06:10:32.485Z,2.78
2022-10-06T06:11:35.735Z,1.85
2022-10-06T06:12:37.380Z,2.58
2022-10-06T06:13:39.015Z,2.60
2022-10-06T06:14:59.058Z,2.03
2022-10-06T06:16:01.724Z,2.25
2022-10-06T06:17:03.348Z,2.00
2022-10-06T06:18:06.049Z,2.45
2022-10-06T06:19:09.198Z,2.83
2022-10-06T06:20:10.855Z,2.42
2022-10-06T06:21:12.536Z,1.75
2022-10-06T06:22:14.188Z,2.55
2022-10-06T06:23:15.821Z,2.30
2022-10-06T06:24:17.739Z,2.20
2022-10-06T06:25:19.368Z,2.20
2022-10-06T06:26:24.089Z,2.40
2022-10-06T06:27:26.218Z,2.65
2022-10-06T06:28:30.141Z,2.50
2022-10-06T06:29:31.949Z,1.80
2022-10-06T06:30:33.752Z,2.17
2022-10-06T06:31:38.606Z,2.90
2022-10-06T06:32:40.285Z,2.35
2022-10-06T06:33:42.068Z,2.28
2022-10-06T06:34:43.686Z,2.03
2022-10-06T06:35:45.264Z,2.17
2022-10-06T06:36:53.486Z,1.90
2022-10-06T06:37:55.175Z,2.30
2022-10-06T06:38:58.246Z,1.85
2022-10-06T06:39:59.858Z,2.60
2022-10-06T06:41:01.430Z,2.47
2022-10-06T06:42:05.016Z,2.05
2022-10-06T06:43:06.597Z,1.17
2022-10-06T06:44:11.328Z,2.65
2022-10-06T06:45:14.066Z,2.35
2022-10-06T06:46:18.091Z,1.88
2022-10-06T06:47:23.163Z,2.00
2022-10-06T06:48:28.785Z,1.95
2022-10-06T06:49:30.897Z,2.33
2022-10-06T06:50:32.770Z,2.45
2022-10-06T06:51:40.359Z,2.10
2022-10-06T06:52:43.825Z,1.85
2022-10-06T06:53:45.416Z,2.90
2022-10-06T06:54:49.902Z,2.17
2022-10-06T06:55:51.757Z,2.30
2022-10-06T06:56:55.167Z,1.77
2022-10-06T06:57:56.795Z,2.80
2022-10-06T06:58:58.368Z,2.30
2022-10-06T07:00:05.158Z,1.30
2022-10-06T07:01:13.652Z,2.00
2022-10-06T07:02:15.547Z,1.90
2022-10-06T07:03:38.466Z,2.00
2022-10-06T07:04:43.719Z,1.70
2022-10-06T07:05:46.422Z,1.63
2022-10-06T07:06:58.372Z,1.87
2022-10-06T07:08:00.254Z,1.87
2022-10-06T07:09:01.874Z,1.70
2022-10-06T07:10:04.360Z,1.93
2022-10-06T07:11:17.261Z,1.67
2022-10-06T07:12:18.884Z,1.73
2022-10-06T07:13:20.462Z,1.70
2022-10-06T07:14:24.896Z,2.63
2022-10-06T07:15:45.111Z,1.70
2022-10-06T07:17:05.289Z,2.20
2022-10-06T07:18:28.540Z,2.63
2022-10-06T07:19:49.175Z,1.75
2022-10-06T07:21:09.722Z,2.83
2022-10-06T07:22:30.046Z,2.08
2022-10-06T07:23:50.635Z,2.58
2022-10-06T07:25:08.024Z,2.45
2022-10-06T07:26:09.674Z,2.58
2022-10-06T07:27:11.609Z,2.15
2022-10-06T07:28:13.294Z,2.05
2022-10-06T07:29:14.947Z,2.05
2022-10-06T07:30:25.657Z,2.97
2022-10-06T07:31:33.357Z,2.00
2022-10-06T07:32:35.128Z,1.65
2022-10-06T07:33:37.032Z,2.10
2022-10-06T07:34:39.572Z,2.00
2022-10-06T07:35:41.195Z,2.13
2022-10-06T07:36:46.339Z,2.25
2022-10-06T07:37:48.824Z,2.60
2022-10-06T07:38:50.411Z,2.03
2022-10-06T07:39:52.082Z,2.30
2022-10-06T07:41:14.888Z,2.58
2022-10-06T07:42:18.574Z,2.42
2022-10-06T07:43:20.156Z,2.80
2022-10-06T07:44:23.226Z,2.45
2022-10-06T07:45:38.323Z,2.25
2022-10-06T07:46:40.104Z,2.30
2022-10-06T07:47:41.730Z,2.30
2022-10-06T07:48:44.471Z,2.67
2022-10-06T07:49:47.366Z,2.05
2022-10-06T07:50:51.485Z,2.65
2022-10-06T07:51:53.580Z,2.70
2022-10-06T07:52:55.186Z,2.30
2022-10-06T07:53:56.817Z,2.20
2022-10-06T07:54:58.434Z,2.80
2022-10-06T07:56:05.252Z,3.33
2022-10-06T07:57:06.843Z,2.28
2022-10-06T07:58:16.644Z,2.22
2022-10-06T07:59:19.758Z,2.15
2022-10-06T08:00:22.487Z,2.55
2022-10-06T08:01:26.784Z,2.67
2022-10-06T08:02:31.471Z,1.75
2022-10-06T08:03:40.976Z,3.42
2022-10-06T08:04:42.561Z,2.40
2022-10-06T08:05:45.652Z,2.45
2022-10-06T08:06:49.353Z,2.30
2022-10-06T08:07:52.513Z,2.22
2022-10-06T08:08:55.015Z,2.08
2022-10-06T08:09:56.603Z,2.50
2022-10-06T08:11:01.484Z,2.35
2022-10-06T08:12:23.682Z,2.78
2022-10-06T08:13:26.004Z,2.25
2022-10-06T08:14:27.601Z,3.08
2022-10-06T08:15:29.179Z,3.25
2022-10-06T08:16:30.973Z,3.10
2022-10-06T08:17:34.086Z,2.40
2022-10-06T08:18:46.042Z,2.40
2022-10-06T08:19:48.376Z,2.17
2022-10-06T08:20:49.988Z,2.67
2022-10-06T08:21:52.111Z,2.53
2022-10-06T08:22:54.515Z,2.33
2022-10-06T08:23:58.037Z,2.20
2022-10-06T08:25:07.407Z,1.97
2022-10-06T08:26:11.004Z,2.67
2022-10-06T08:27:12.666Z,2.90
2022-10-06T08:28:14.314Z,3.73
2022-10-06T08:29:16.058Z,3.00
2022-10-06T08:30:17.800Z,2.00
2022-10-06T08:31:21.755Z,2.60
2022-10-06T08:32:24.308Z,2.33
2022-10-06T08:33:26.945Z,2.20
2022-10-06T08:34:28.671Z,2.43
2022-10-06T08:35:31.079Z,2.10
2022-10-06T08:36:32.901Z,2.43
2022-10-06T08:37:34.581Z,2.33
2022-10-06T08:38:37.735Z,2.40
2022-10-06T08:39:41.341Z,2.20
2022-10-06T08:40:44.237Z,1.80
2022-10-06T08:41:51.091Z,2.53
2022-10-06T08:42:56.608Z,2.70
2022-10-06T08:44:15.789Z,2.73
2022-10-06T08:45:38.607Z,2.07
2022-10-06T08:46:49.327Z,2.00
2022-10-06T08:48:04.165Z,3.37
2022-10-06T08:49:06.913Z,2.30
2022-10-06T08:50:12.827Z,2.77
2022-10-06T08:51:51.227Z,2.50
2022-10-06T08:53:15.454Z,1.58
2022-10-06T08:54:41.195Z,2.13
2022-10-06T08:55:55.688Z,1.73
2022-10-06T08:57:16.874Z,2.33
2022-10-06T08:58:45.330Z,1.90
2022-10-06T08:59:49.986Z,1.47
2022-10-06T09:00:56.822Z,2.13
2022-10-06T09:01:58.636Z,1.93
2022-10-06T09:03:02.189Z,2.90
2022-10-06T09:04:07.194Z,2.07
2022-10-06T09:05:12.735Z,2.10
2022-10-06T09:06:41.355Z,1.90
2022-10-06T09:08:03.907Z,2.27
2022-10-06T09:09:44.470Z,2.10
2022-10-06T09:11:10.508Z,2.00
2022-10-06T09:12:39.410Z,1.73
2022-10-06T09:13:58.107Z,2.27
2022-10-06T09:15:08.330Z,2.20
2022-10-06T09:16:16.104Z,1.90
2022-10-06T09:17:35.092Z,2.30
2022-10-06T09:19:03.481Z,2.47
2022-10-06T09:20:04.972Z,1.87
2022-10-06T09:21:13.406Z,2.00
2022-10-06T09:22:20.495Z,2.20
2022-10-06T09:23:42.086Z,1.53
2022-10-06T09:24:49.436Z,2.10
2022-10-06T09:25:51.472Z,2.40
2022-10-06T09:26:57.408Z,1.40
2022-10-06T09:28:01.436Z,2.30
2022-10-06T09:29:03.114Z,1.17
2022-10-06T09:30:06.190Z,2.20
2022-10-06T09:31:28.471Z,2.20
2022-10-06T09:32:31.259Z,1.80
2022-10-06T09:33:39.842Z,2.07
2022-10-06T09:34:55.225Z,1.57
2022-10-06T09:36:10.888Z,2.10
2022-10-06T09:37:13.691Z,1.47
2022-10-06T09:38:15.342Z,1.53
2022-10-06T09:39:26.224Z,1.70
2022-10-06T09:40:48.532Z,1.87
2022-10-06T09:41:50.382Z,1.73
2022-10-06T09:42:53.484Z,1.87
2022-10-06T09:44:04.888Z,1.70
2022-10-06T09:45:24.676Z,2.47
2022-10-06T09:46:35.431Z,1.70
2022-10-06T09:47:45.339Z,1.90
2022-10-06T09:48:47.270Z,2.27
2022-10-06T09:50:16.172Z,2.37
2022-10-06T09:51:18.571Z,1.50
2022-10-06T09:52:20.287Z,1.83
2022-10-06T09:53:21.928Z,1.40
2022-10-06T09:54:24.404Z,1.53
2022-10-06T09:55:30.212Z,1.47
2022-10-06T09:56:33.029Z,2.40
2022-10-06T09:57:35.613Z,1.63
2022-10-06T09:58:39.989Z,1.77
2022-10-06T09:59:44.557Z,1.70
2022-10-06T10:00:54.833Z,1.60
2022-10-06T10:01:59.867Z,1.70
2022-10-06T10:03:04.495Z,1.80
2022-10-06T10:04:20.610Z,1.70
2022-10-06T10:05:24.075Z,1.60
2022-10-06T10:06:31.218Z,1.80
2022-10-06T10:07:34.642Z,1.47
2022-10-06T10:08:37.512Z,1.80
2022-10-06T10:09:41.700Z,1.67
2022-10-06T10:10:43.416Z,1.40
2022-10-06T10:12:04.673Z,2.23
2022-10-06T10:13:24.609Z,1.80
2022-10-06T10:14:26.237Z,2.03
2022-10-06T10:15:28.007Z,2.10
2022-10-06T10:16:34.778Z,2.50
2022-10-06T10:17:50.132Z,1.90
2022-10-06T10:18:52.444Z,2.50
2022-10-06T10:19:54.901Z,1.50
2022-10-06T10:21:10.363Z,2.13
2022-10-06T10:22:30.917Z,2.03
2022-10-06T10:23:36.257Z,1.90
2022-10-06T10:25:20.012Z,2.27
2022-10-06T10:26:45.309Z,1.97
2022-10-06T10:28:10.978Z,2.20
2022-10-06T10:29:45.583Z,1.90
2022-10-06T10:31:04.436Z,1.70
2022-10-06T10:32:40.212Z,1.87
2022-10-06T10:34:23.213Z,1.80
2022-10-06T10:35:28.881Z,1.97
2022-10-06T10:36:43.485Z,1.90
2022-10-06T10:38:13.749Z,2.07
2022-10-06T10:39:30.191Z,1.83
2022-10-06T10:40:54.146Z,2.10
2022-10-06T10:41:59.061Z,2.00
2022-10-06T10:43:22.124Z,2.20
2022-10-06T10:44:32.223Z,1.97
2022-10-06T10:46:00.436Z,2.13
2022-10-06T10:47:36.601Z,1.63
2022-10-06T10:49:01.846Z,2.03
2022-10-06T10:50:08.713Z,2.30
2022-10-06T10:51:16.418Z,1.90
2022-10-06T10:52:22.983Z,2.07
2022-10-06T10:53:52.408Z,2.33
2022-10-06T10:55:04.700Z,1.60
2022-10-06T10:56:10.500Z,2.17
2022-10-06T10:57:30.134Z,2.40
2022-10-06T10:58:38.501Z,2.20
2022-10-06T11:00:03.979Z,1.80
2022-10-06T11:01:29.450Z,2.07
2022-10-06T11:02:31.462Z,2.50
2022-10-06T11:03:33.281Z,1.77
2022-10-06T11:04:40.681Z,2.77
2022-10-06T11:06:17.575Z,1.97
2022-10-06T11:07:26.347Z,2.47
2022-10-06T11:09:02.264Z,1.67
2022-10-06T11:10:25.074Z,2.30
2022-10-06T11:11:52.198Z,1.90
2022-10-06T11:13:32.957Z,1.70
2022-10-06T11:14:59.648Z,1.80
2022-10-06T11:16:38.836Z,1.90
2022-10-06T11:17:50.220Z,2.00
2022-10-06T11:19:23.010Z,1.90
2022-10-06T11:20:44.148Z,2.97
2022-10-06T11:22:01.194Z,1.70
2022-10-06T11:23:22.146Z,1.40
2022-10-06T11:24:47.880Z,2.00
2022-10-06T11:26:04.852Z,2.03
2022-10-06T11:27:18.067Z,2.20
2022-10-06T11:28:50.805Z,1.90
2022-10-06T11:30:26.091Z,1.80
2022-10-06T11:31:55.156Z,1.60
2022-10-06T11:33:14.148Z,1.37
2022-10-06T11:34:15.716Z,2.10
2022-10-06T11:35:26.922Z,2.00
2022-10-06T11:36:53.600Z,1.77
2022-10-06T11:38:00.852Z,1.80
2022-10-06T11:39:30.609Z,1.60
2022-10-06T11:40:53.937Z,2.20
2022-10-06T11:42:15.253Z,1.50
2022-10-06T11:43:43.362Z,1.57
2022-10-06T11:44:49.765Z,1.90
2022-10-06T11:45:59.993Z,1.70
2022-10-06T11:47:09.806Z,1.63
2022-10-06T11:48:25.031Z,1.97
2022-10-06T11:49:29.347Z,1.77
2022-10-06T11:50:40.209Z,1.37
2022-10-06T11:51:41.844Z,1.70
2022-10-06T11:52:45.437Z,1.80
2022-10-06T11:53:47.338Z,1.70
2022-10-06T11:54:53.565Z,1.77
2022-10-06T11:56:23.979Z,1.90
2022-10-06T11:57:30.549Z,1.60
2022-10-06T11:58:55.543Z,1.63
2022-10-06T12:00:17.373Z,1.50
2022-10-06T12:01:31.017Z,1.63
2022-10-06T12:02:32.665Z,1.37
2022-10-06T12:03:45.280Z,1.93
2022-10-06T12:06:46.869Z,1.43
2022-10-06T12:07:54.419Z,1.53
2022-10-06T12:08:56.061Z,1.40
2022-10-06T12:10:36.247Z,1.50
2022-10-06T12:11:39.793Z,2.03
2022-10-06T12:12:43.227Z,1.63
2022-10-06T12:14:44.505Z,1.73
2022-10-06T12:18:35.201Z,1.87
2022-10-06T12:19:49.844Z,1.43
2022-10-06T12:21:09.141Z,1.80
2022-10-06T12:22:22.930Z,1.30
2022-10-06T12:23:50.535Z,1.80
2022-10-06T12:25:03.352Z,1.60
2022-10-06T12:26:21.322Z,1.63
2022-10-06T12:27:29.754Z,1.80
2022-10-06T12:28:38.299Z,1.40
2022-10-06T12:29:52.259Z,2.40
2022-10-06T12:31:17.927Z,1.40
2022-10-06T12:32:35.017Z,1.93
2022-10-06T12:33:39.376Z,1.83
2022-10-06T12:34:51.782Z,2.60
2022-10-06T12:36:02.873Z,1.80
2022-10-06T12:37:40.130Z,1.53
2022-10-06T12:38:44.414Z,1.60
2022-10-06T12:39:46.016Z,1.70
2022-10-06T12:40:49.898Z,1.90
2022-10-06T12:42:01.691Z,2.50
2022-10-06T12:43:12.446Z,1.30
2022-10-06T12:44:36.578Z,1.80
2022-10-06T12:45:46.258Z,1.20
2022-10-06T12:46:49.801Z,1.60
2022-10-06T12:47:52.271Z,1.27
2022-10-06T12:49:03.632Z,1.47
2022-10-06T12:50:25.382Z,1.60
2022-10-06T12:51:40.576Z,2.43
2022-10-06T12:52:52.459Z,1.47
2022-10-06T12:54:12.070Z,1.53
2022-10-06T12:55:28.535Z,1.63
2022-10-06T12:56:36.187Z,1.37
2022-10-06T12:57:48.654Z,1.53
2022-10-06T12:58:50.249Z,1.60
2022-10-06T12:59:52.080Z,1.90
2022-10-06T13:00:54.246Z,1.53
2022-10-06T13:02:08.570Z,1.33
2022-10-06T13:03:24.044Z,1.67
2022-10-06T13:04:44.854Z,1.53
2022-10-06T13:05:52.643Z,1.77
2022-10-06T13:06:54.259Z,1.80
2022-10-06T13:08:03.606Z,2.00
2022-10-06T13:09:13.055Z,1.30
2022-10-06T13:10:14.673Z,1.50
2022-10-06T13:11:21.748Z,1.67
2022-10-06T13:12:37.913Z,1.70
2022-10-06T13:13:47.986Z,1.73
2022-10-06T13:15:10.107Z,1.37
2022-10-06T13:16:12.457Z,1.40
2022-10-06T13:17:14.350Z,2.43
2022-10-06T13:18:17.113Z,1.73
2022-10-06T13:19:26.759Z,1.50
2022-10-06T13:20:42.893Z,1.93
2022-10-06T13:21:45.082Z,1.43
2022-10-06T13:22:54.867Z,1.17
2022-10-06T13:23:56.879Z,1.63
2022-10-06T13:25:01.700Z,2.00
2022-10-06T13:26:19.440Z,1.23
2022-10-06T13:27:21.076Z,1.60
2022-10-06T13:28:28.708Z,1.70
2022-10-06T13:29:31.711Z,1.60
2022-10-06T13:30:38.357Z,1.53
2022-10-06T13:31:51.696Z,1.27
2022-10-06T13:32:55.613Z,1.43
2022-10-06T13:34:07.399Z,2.20
2022-10-06T13:35:12.403Z,1.67
2022-10-06T13:36:14.745Z,1.43
2022-10-06T13:37:16.628Z,1.73
2022-10-06T13:38:18.619Z,1.70
2022-10-06T13:39:26.891Z,1.40
2022-10-06T13:40:44.055Z,1.83
2022-10-06T13:41:50.818Z,1.80
2022-10-06T13:42:52.542Z,1.13
2022-10-06T13:44:04.785Z,1.37
2022-10-06T13:45:14.783Z,1.50
2022-10-06T13:46:19.755Z,1.13
2022-10-06T13:47:27.067Z,1.73
2022-10-06T13:48:30.095Z,1.10
2022-10-06T13:49:56.294Z,1.80
2022-10-06T13:52:08.765Z,1.57
2022-10-06T13:53:28.360Z,1.87
2022-10-06T13:54:44.739Z,1.90
2022-10-06T13:55:50.202Z,2.20
2022-10-06T13:56:53.176Z,1.87
2022-10-06T13:58:03.349Z,1.63
2022-10-06T13:59:25.050Z,1.93
2022-10-06T14:00:46.912Z,1.67
2022-10-06T14:01:48.650Z,1.80
2022-10-06T14:02:55.926Z,1.40
2022-10-06T14:04:14.836Z,1.80
2022-10-06T14:05:29.281Z,1.40
2022-10-06T14:06:30.906Z,1.40
2022-10-06T14:07:32.633Z,1.47
2022-10-06T14:08:34.820Z,1.77
2022-10-06T14:09:36.425Z,1.73
2022-10-06T14:10:40.854Z,1.70
2022-10-06T14:11:44.810Z,1.60
2022-10-06T14:12:48.977Z,1.10
2022-10-06T14:13:52.903Z,2.23
2022-10-06T14:14:54.564Z,1.93
2022-10-06T14:16:01.816Z,1.67
2022-10-06T14:17:03.996Z,1.73
2022-10-06T14:18:06.063Z,1.30
2022-10-06T14:19:32.069Z,1.67
2022-10-06T14:20:41.820Z,1.27
2022-10-06T14:21:45.677Z,1.40
2022-10-06T14:22:47.357Z,1.30
2022-10-06T14:23:54.014Z,1.80
2022-10-06T14:24:55.918Z,1.60
2022-10-06T14:25:57.648Z,1.87
2022-10-06T14:27:04.529Z,1.67
2022-10-06T14:28:06.675Z,1.33
2022-10-06T14:29:08.422Z,1.50
2022-10-06T14:30:11.569Z,1.47
2022-10-06T14:31:14.808Z,1.93
2022-10-06T14:32:18.356Z,1.50
2022-10-06T14:33:19.983Z,1.70
2022-10-06T14:34:22.141Z,1.43
2022-10-06T14:35:23.757Z,1.77
2022-10-06T14:36:30.672Z,1.60
2022-10-06T14:37:33.485Z,1.30
2022-10-06T14:38:35.092Z,1.80
2022-10-06T14:39:36.743Z,1.77
2022-10-06T14:40:42.302Z,1.23
2022-10-06T14:41:45.398Z,1.63
2022-10-06T14:43:51.654Z,1.60
2022-10-06T14:44:53.291Z,1.73
2022-10-06T14:45:54.950Z,1.47
2022-10-06T14:46:57.755Z,2.07
2022-10-06T14:47:59.524Z,1.40
2022-10-06T14:49:04.382Z,2.00
2022-10-06T14:50:07.161Z,1.57
2022-10-06T14:51:09.445Z,1.60
2022-10-06T14:52:11.948Z,1.10
2022-10-06T14:53:16.757Z,1.40
2022-10-06T14:54:20.140Z,1.70
2022-10-06T14:55:21.774Z,1.67